Time;durP1;ratioP1;P1;durP2;ratioP2;P2;SDS_P1;SDS_P2;PMS_P1;PMS_P2;Temp;Humidity;BMP_temperature;BMP_pressure;BME280_temperature;BME280_humidity;BME280_pressure;Samples;Min_cycle;Max_cycle;Signal;HPM_P1;HPM_P2
2023/03/15 00:01:39;;;;;;;;;;;10.60;99.90;;;;;;5030453;28;20104;-75
2023/03/15 00:04:05;;;;;;;1.80;0.45;;;10.60;99.90;;;;;;5029628;28;20374;-74
2023/03/15 00:06:32;;;;;;;;;;;10.60;99.90;;;;;;5030199;28;20037;-75
2023/03/15 00:08:58;;;;;;;;;;;10.60;99.90;;;;;;5029644;28;19925;-76
2023/03/15 00:11:24;;;;;;;1.05;0.30;;;10.60;99.90;;;;;;5029623;28;19920;-75
2023/03/15 00:13:50;;;;;;;;;;;10.60;99.90;;;;;;5030235;28;20025;-76
2023/03/15 00:16:17;;;;;;;0.90;0.40;;;10.60;99.90;;;;;;5028575;28;19952;-75
2023/03/15 00:18:44;;;;;;;1.98;0.50;;;10.60;99.90;;;;;;5029482;28;20032;-75
2023/03/15 00:21:09;;;;;;;1.15;0.60;;;10.60;99.90;;;;;;5029227;28;20028;-75
2023/03/15 00:23:35;;;;;;;;;;;10.60;99.90;;;;;;5029734;28;20029;-75
2023/03/15 00:26:01;;;;;;;3.40;1.85;;;10.70;99.90;;;;;;5029104;28;19915;-76
2023/03/15 00:28:26;;;;;;;;;;;10.70;99.90;;;;;;5028267;28;20032;-74
2023/03/15 00:31:22;;;;;;;3.85;1.92;;;10.70;99.90;;;;;;5028393;28;20385;-76
2023/03/15 00:33:48;;;;;;;3.00;1.40;;;10.70;99.90;;;;;;5015815;28;20784;-75
2023/03/15 00:36:14;;;;;;;;;;;10.70;99.90;;;;;;5028189;28;20116;-75
2023/03/15 00:38:43;;;;;;;4.93;2.33;;;10.70;99.90;;;;;;5044244;28;19909;-75
2023/03/15 00:41:14;;;;;;;2.60;1.55;;;10.60;99.90;;;;;;5027466;28;20066;-75
2023/03/15 00:43:40;;;;;;;5.50;3.40;;;10.70;99.90;;;;;;5027643;28;20028;-75
2023/03/15 00:46:06;;;;;;;2.28;1.10;;;10.70;99.90;;;;;;5027695;28;20520;-75
2023/03/15 00:48:34;;;;;;;3.67;2.00;;;10.70;99.90;;;;;;5027558;28;20034;-75
2023/03/15 00:51:04;;;;;;;7.85;3.70;;;10.70;99.90;;;;;;5027232;28;20021;-76
2023/03/15 00:53:30;;;;;;;4.85;1.90;;;10.70;99.90;;;;;;5028684;28;20029;-76
2023/03/15 00:55:55;;;;;;;;;;;10.70;99.90;;;;;;5027978;28;20025;-76
2023/03/15 00:58:21;;;;;;;3.38;1.77;;;10.70;99.90;;;;;;5028656;28;19908;-75
2023/03/15 01:00:47;;;;;;;;;;;10.70;99.90;;;;;;5029148;28;20038;-76
2023/03/15 01:03:13;;;;;;;9.70;5.30;;;10.70;99.90;;;;;;5028585;28;19935;-76
2023/03/15 01:05:39;;;;;;;8.30;4.60;;;10.70;99.90;;;;;;5027131;28;20025;-74
2023/03/15 01:08:05;;;;;;;;;;;10.70;99.90;;;;;;5028903;28;20528;-76
2023/03/15 01:10:33;;;;;;;11.38;5.38;;;10.70;99.90;;;;;;5028610;28;19923;-75
2023/03/15 01:12:59;;;;;;;10.68;4.32;;;10.60;99.90;;;;;;5028370;28;20112;-77
2023/03/15 01:15:24;;;;;;;;;;;10.60;99.90;;;;;;5028899;28;20512;-75
2023/03/15 01:17:50;;;;;;;3.45;1.88;;;10.60;99.90;;;;;;5028583;28;19918;-76
2023/03/15 01:20:15;;;;;;;;;;;10.60;99.90;;;;;;5028825;28;20506;-76
2023/03/15 01:22:41;;;;;;;4.95;2.17;;;10.60;99.90;;;;;;5027476;28;20365;-75
2023/03/15 01:25:08;;;;;;;;;;;10.60;99.90;;;;;;5027380;28;20065;-76
2023/03/15 01:27:34;;;;;;;2.97;1.53;;;10.60;99.90;;;;;;5028430;28;19913;-75
2023/03/15 01:30:00;;;;;;;3.05;1.30;;;10.60;99.90;;;;;;5028248;28;20336;-75
2023/03/15 01:32:25;;;;;;;;;;;10.60;99.90;;;;;;5027494;28;20021;-74
2023/03/15 01:34:51;;;;;;;2.67;1.33;;;10.50;99.90;;;;;;5028361;28;19951;-75
2023/03/15 01:37:17;;;;;;;;;;;10.50;99.90;;;;;;5028370;28;20037;-76
2023/03/15 01:39:42;;;;;;;2.50;1.73;;;10.50;99.90;;;;;;5028596;28;19905;-76
2023/03/15 01:42:08;;;;;;;;;;;10.40;99.90;;;;;;5029688;28;20037;-76
2023/03/15 01:44:56;;;;;;;2.67;1.80;;;10.40;99.90;;;;;;5031131;28;19909;-75
2023/03/15 01:47:24;;;;;;;3.58;2.00;;;10.40;99.90;;;;;;5030603;28;20103;-75
2023/03/15 01:50:11;;;;;;;2.85;2.10;;;10.30;99.90;;;;;;5030774;28;20164;-75
2023/03/15 01:52:40;;;;;;;4.13;2.35;;;10.30;99.90;;;;;;5030664;28;20040;-75
2023/03/15 01:55:08;;;;;;;3.40;1.95;;;10.30;99.90;;;;;;5030615;28;20065;-75
2023/03/15 01:57:54;;;;;;;4.03;1.38;;;10.30;99.90;;;;;;5031960;28;20565;-75
2023/03/15 02:00:22;;;;;;;3.22;1.70;;;10.30;99.90;;;;;;5030629;28;20029;-76
2023/03/15 02:03:02;;;;;;;3.95;1.85;;;10.40;99.90;;;;;;5031863;28;20104;-75
2023/03/15 02:05:32;;;;;;;1.80;1.10;;;10.50;99.90;;;;;;5030506;28;20491;-75
2023/03/15 02:07:59;;;;;;;2.58;1.40;;;10.50;99.90;;;;;;5030227;28;20037;-75
2023/03/15 02:10:34;;;;;;;2.47;1.40;;;10.50;99.90;;;;;;5031814;28;20041;-75
2023/03/15 02:13:00;;;;;;;5.05;1.52;;;10.50;99.90;;;;;;5029904;28;20025;-76
2023/03/15 02:15:26;;;;;;;3.38;1.60;;;10.60;99.90;;;;;;5030106;28;20037;-76
2023/03/15 02:17:52;;;;;;;;;;;10.60;99.90;;;;;;5032201;28;20108;-75
2023/03/15 02:20:56;;;;;;;5.63;1.33;;;10.50;99.90;;;;;;5031632;28;19909;-75
2023/03/15 02:23:22;;;;;;;3.10;1.30;;;10.60;99.90;;;;;;5031710;28;20026;-73
2023/03/15 02:26:14;;;;;;;2.67;1.27;;;10.60;99.90;;;;;;5031284;28;20498;-73
2023/03/15 02:28:41;;;;;;;3.67;1.35;;;10.50;99.90;;;;;;5029998;28;20022;-73
2023/03/15 02:31:07;;;;;;;3.00;1.20;;;10.40;99.90;;;;;;5029924;28;20044;-73
2023/03/15 02:33:40;;;;;;;;;;;10.50;99.90;;;;;;5031674;28;20025;-73
2023/03/15 02:36:21;;;;;;;2.45;1.35;;;10.40;99.90;;;;;;5046697;28;19952;-73
2023/03/15 02:38:48;;;;;;;3.55;1.50;;;10.40;99.90;;;;;;5029772;28;20426;-73
2023/03/15 02:41:18;;;;;;;2.72;1.50;;;10.40;99.90;;;;;;5030147;28;21188;-73
2023/03/15 02:43:45;;;;;;;3.72;2.03;;;10.40;99.90;;;;;;5029931;28;20087;-71
2023/03/15 02:46:12;;;;;;;2.88;1.50;;;10.30;99.90;;;;;;5031140;28;20385;-73
2023/03/15 02:48:39;;;;;;;2.15;1.35;;;10.40;99.90;;;;;;5030700;28;20124;-72
2023/03/15 02:51:05;;;;;;;5.07;1.58;;;10.40;99.90;;;;;;5030608;28;20064;-73
2023/03/15 02:53:31;;;;;;;;;;;10.30;99.90;;;;;;5030720;28;20398;-73
2023/03/15 02:55:57;;;;;;;2.97;1.50;;;10.30;99.90;;;;;;5029519;28;19909;-73
2023/03/15 02:58:23;;;;;;;;;;;10.30;99.90;;;;;;5029996;28;20452;-73
2023/03/15 03:00:48;;;;;;;3.22;2.00;;;10.30;99.90;;;;;;5031227;28;19913;-73
2023/03/15 03:03:14;;;;;;;;;;;10.20;99.90;;;;;;5031170;28;20034;-73
2023/03/15 03:05:40;;;;;;;4.10;1.33;;;10.20;99.90;;;;;;5029828;28;20038;-73
2023/03/15 03:08:05;;;;;;;;;;;10.20;99.90;;;;;;5030942;28;20094;-72
2023/03/15 03:10:31;;;;;;;2.75;1.95;;;10.10;99.90;;;;;;5029539;28;19924;-73
2023/03/15 03:12:56;;;;;;;;;;;10.10;99.90;;;;;;5029539;28;20509;-72
2023/03/15 03:15:22;;;;;;;4.47;2.10;;;10.10;99.90;;;;;;5045693;28;19909;-73
2023/03/15 03:17:48;;;;;;;;;;;10.00;99.90;;;;;;5030848;28;20087;-76
2023/03/15 03:20:14;;;;;;;3.70;1.73;;;9.90;99.90;;;;;;5029548;28;20394;-76
2023/03/15 03:22:41;;;;;;;2.42;1.48;;;9.90;99.90;;;;;;5030419;28;20163;-73
2023/03/15 03:25:11;;;;;;;3.72;1.40;;;9.90;99.90;;;;;;5030272;28;20029;-73
2023/03/15 03:27:37;;;;;;;3.83;2.08;;;9.90;99.90;;;;;;5030257;28;20060;-73
2023/03/15 03:30:10;;;;;;;6.50;2.25;;;9.90;99.90;;;;;;5028885;28;20045;-73
2023/03/15 03:32:36;;;;;;;3.83;2.45;;;9.90;99.90;;;;;;5030222;28;20383;-73
2023/03/15 03:35:01;;;;;;;;;;;9.80;99.90;;;;;;5029407;28;20037;-74
2023/03/15 03:37:29;;;;;;;3.72;2.20;;;9.80;99.90;;;;;;5029914;28;20003;-74
2023/03/15 03:39:55;;;;;;;3.65;2.33;;;9.80;99.90;;;;;;5030032;28;20025;-74
2023/03/15 03:42:21;;;;;;;4.75;2.17;;;9.70;99.90;;;;;;5029909;28;20510;-74
2023/03/15 03:44:47;;;;;;;;;;;9.70;99.90;;;;;;5030450;28;20104;-74
2023/03/15 03:47:12;;;;;;;4.13;2.50;;;9.70;99.90;;;;;;5029955;28;19951;-73
2023/03/15 03:49:38;;;;;;;;;;;9.60;99.90;;;;;;5029051;28;20056;-74
2023/03/15 03:52:04;;;;;;;5.78;1.98;;;9.60;99.90;;;;;;5028434;28;19909;-71
2023/03/15 03:54:30;;;;;;;;;;;9.60;99.90;;;;;;5029074;28;20036;-74
2023/03/15 03:56:56;;;;;;;3.22;2.05;;;9.60;99.90;;;;;;5029691;28;19916;-73
2023/03/15 03:59:22;;;;;;;;;;;9.60;99.90;;;;;;5029993;28;20033;-74
2023/03/15 04:01:47;;;;;;;3.28;2.17;;;9.50;99.90;;;;;;5028579;28;19908;-74
2023/03/15 04:04:13;;;;;;;;;;;9.50;99.90;;;;;;5030011;28;20033;-73
2023/03/15 04:06:44;;;;;;;4.50;2.25;;;9.60;99.90;;;;;;5028035;28;19963;-73
2023/03/15 04:09:14;;;;;;;5.07;2.42;;;9.50;99.90;;;;;;5027857;28;20045;-73
2023/03/15 04:11:42;;;;;;;4.05;2.28;;;9.60;99.90;;;;;;5028183;28;20029;-73
2023/03/15 04:14:12;;;;;;;4.30;2.42;;;9.50;99.90;;;;;;5028034;28;20021;-74
2023/03/15 04:16:38;;;;;;;6.03;3.00;;;9.50;99.90;;;;;;5029165;28;20040;-74
2023/03/15 04:19:04;;;;;;;;;;;9.50;99.90;;;;;;5029747;28;20017;-73
2023/03/15 04:21:33;;;;;;;15.15;8.77;;;9.50;99.90;;;;;;5029447;28;20437;-75
2023/03/15 04:23:59;;;;;;;12.18;6.20;;;9.50;99.90;;;;;;5029287;28;20044;-76
2023/03/15 04:26:26;;;;;;;6.55;3.80;;;9.40;99.90;;;;;;5029212;28;20031;-75
2023/03/15 04:28:58;;;;;;;4.35;3.13;;;9.50;99.90;;;;;;5028893;28;20053;-76
2023/03/15 04:31:25;;;;;;;3.85;2.72;;;9.50;99.90;;;;;;5029143;28;20167;-75
2023/03/15 04:33:52;;;;;;;4.25;2.53;;;9.50;99.90;;;;;;5027746;28;20138;-75
2023/03/15 04:36:18;;;;;;;3.20;1.73;;;9.50;99.90;;;;;;5029176;28;20132;-75
2023/03/15 04:38:46;;;;;;;;;;;9.50;99.90;;;;;;5029108;28;20116;-75
2023/03/15 04:41:13;;;;;;;4.22;1.98;;;9.60;99.90;;;;;;5028844;28;20656;-74
2023/03/15 04:43:39;;;;;;;4.05;2.05;;;9.50;99.90;;;;;;5028994;28;20053;-73
2023/03/15 04:46:05;;;;;;;;;;;9.50;99.90;;;;;;5029358;28;20057;-76
2023/03/15 04:48:30;;;;;;;1.70;1.08;;;9.50;99.90;;;;;;5028676;28;20365;-73
2023/03/15 04:50:56;;;;;;;;;;;9.70;99.90;;;;;;5029128;28;20041;-75
2023/03/15 04:53:22;;;;;;;3.55;2.22;;;9.60;99.90;;;;;;5027513;28;19909;-72
2023/03/15 04:55:47;;;;;;;;;;;9.60;99.90;;;;;;5029382;28;20025;-76
2023/03/15 04:58:13;;;;;;;4.00;1.90;;;9.50;99.90;;;;;;5027409;28;20014;-73
2023/03/15 05:00:38;;;;;;;7.68;2.40;;;9.40;99.90;;;;;;5028661;28;20044;-73
2023/03/15 05:03:04;;;;;;;;;;;9.40;99.90;;;;;;5028668;28;20083;-76
2023/03/15 05:05:32;;;;;;;7.00;3.33;;;9.30;99.90;;;;;;5027260;28;20090;-73
2023/03/15 05:07:57;;;;;;;3.85;1.75;;;9.30;99.90;;;;;;5028363;28;20060;-71
2023/03/15 05:10:24;;;;;;;;;;;9.30;99.90;;;;;;5028869;28;20033;-75
2023/03/15 05:12:50;;;;;;;5.00;2.70;;;9.30;99.90;;;;;;5027151;28;19909;-73
2023/03/15 05:15:15;;;;;;;;;;;9.20;99.90;;;;;;5028751;28;20047;-73
2023/03/15 05:17:41;;;;;;;9.60;3.97;;;9.20;99.90;;;;;;5026856;28;19931;-73
2023/03/15 05:20:11;;;;;;;;;;;9.20;99.90;;;;;;5027607;28;20454;-75
2023/03/15 05:22:37;;;;;;;9.40;3.90;;;9.20;99.90;;;;;;5028565;28;19909;-73
2023/03/15 05:25:03;;;;;;;5.35;2.47;;;9.20;99.90;;;;;;5028453;28;20036;-75
2023/03/15 05:27:31;;;;;;;;;;;9.20;99.90;;;;;;5028709;28;20030;-75
2023/03/15 05:29:57;;;;;;;4.28;1.95;;;9.20;99.90;;;;;;5028335;28;20370;-72
2023/03/15 05:32:25;;;;;;;;;;;9.10;99.90;;;;;;5028859;28;20033;-75
2023/03/15 05:34:54;;;;;;;38.38;13.18;;;9.10;99.90;;;;;;5028323;28;19905;-76
2023/03/15 05:37:22;;;;;;;30.33;12.95;;;9.10;99.90;;;;;;5028247;28;20053;-75
2023/03/15 05:39:47;;;;;;;5.32;2.38;;;9.10;99.90;;;;;;5027012;28;20032;-75
2023/03/15 05:42:13;;;;;;;;;;;9.20;99.90;;;;;;5028606;28;20029;-75
2023/03/15 05:44:39;;;;;;;4.15;1.85;;;9.20;99.90;;;;;;5028142;28;20324;-76
2023/03/15 05:47:05;;;;;;;3.88;1.80;;;9.20;99.90;;;;;;5028044;28;20044;-76
2023/03/15 05:49:31;;;;;;;;;;;9.20;99.90;;;;;;5028754;28;20033;-76
2023/03/15 05:51:56;;;;;;;8.13;3.63;;;9.10;99.90;;;;;;5027188;28;20377;-75
2023/03/15 05:54:22;;;;;;;;;;;9.10;99.90;;;;;;5027232;28;20045;-75
2023/03/15 05:56:47;;;;;;;5.45;2.95;;;9.10;99.90;;;;;;5028036;28;19984;-75
2023/03/15 05:59:13;;;;;;;;;;;9.10;99.90;;;;;;5028562;28;20017;-75
2023/03/15 06:01:39;;;;;;;15.15;3.58;;;9.10;99.90;;;;;;5028022;28;19932;-76
2023/03/15 06:04:04;;;;;;;;;;;9.10;99.90;;;;;;5028177;28;20528;-75
2023/03/15 06:06:30;;;;;;;3.95;1.92;;;9.10;99.90;;;;;;5026944;28;19908;-75
2023/03/15 06:08:55;;;;;;;;;;;9.10;99.90;;;;;;5028187;28;20045;-76
2023/03/15 06:11:21;;;;;;;4.38;1.60;;;9.10;99.90;;;;;;5027956;28;19909;-76
2023/03/15 06:13:46;;;;;;;;;;;9.10;99.90;;;;;;5028407;28;20493;-76
2023/03/15 06:16:12;;;;;;;6.28;3.28;;;9.10;99.90;;;;;;5026428;28;19962;-75
2023/03/15 06:18:38;;;;;;;;;;;9.20;99.90;;;;;;5026664;28;20478;-76
2023/03/15 06:21:04;;;;;;;9.75;5.25;;;9.10;99.90;;;;;;5027957;28;19909;-76
2023/03/15 06:23:29;;;;;;;;;;;9.10;99.90;;;;;;5027164;28;20474;-76
2023/03/15 06:25:55;;;;;;;4.38;2.55;;;9.10;99.90;;;;;;5026507;28;20254;-76
2023/03/15 06:28:20;;;;;;;;;;;9.10;99.90;;;;;;5029004;28;20052;-75
2023/03/15 06:30:46;;;;;;;3.33;1.63;;;9.20;99.90;;;;;;5029584;28;20289;-76
2023/03/15 06:33:12;;;;;;;;;;;9.20;99.90;;;;;;5031711;28;20409;-75
2023/03/15 06:35:37;;;;;;;4.45;1.63;;;9.10;99.90;;;;;;5030124;28;20366;-76
2023/03/15 06:38:03;;;;;;;;;;;9.10;99.90;;;;;;5031726;28;20026;-76
2023/03/15 06:40:29;;;;;;;2.67;1.20;;;9.10;99.90;;;;;;5029825;28;19909;-75
2023/03/15 06:42:55;;;;;;;;;;;9.10;99.90;;;;;;5031354;28;20040;-75
2023/03/15 06:45:20;;;;;;;2.80;1.13;;;9.20;99.90;;;;;;5029329;28;19909;-74
2023/03/15 06:47:46;;;;;;;;;;;9.20;99.90;;;;;;5030053;28;20505;-73
2023/03/15 06:50:11;;;;;;;2.58;1.23;;;9.20;99.90;;;;;;5029466;28;19991;-74
2023/03/15 06:52:38;;;;;;;;;;;9.00;99.90;;;;;;5031285;28;20470;-76
2023/03/15 06:55:04;;;;;;;2.05;1.00;;;9.00;99.90;;;;;;5029559;28;19920;-76
2023/03/15 06:57:30;;;;;;;2.45;1.50;;;9.00;99.90;;;;;;5030863;28;20035;-76
2023/03/15 06:59:55;;;;;;;;;;;9.00;99.90;;;;;;5031144;28;20025;-75
2023/03/15 07:02:21;;;;;;;6.30;1.95;;;8.90;99.90;;;;;;5030822;28;19963;-76
2023/03/15 07:04:48;;;;;;;;;;;8.90;99.90;;;;;;5029901;28;20022;-77
2023/03/15 07:07:14;;;;;;;6.90;4.13;;;8.90;99.90;;;;;;5029027;28;19905;-74
2023/03/15 07:09:39;;;;;;;;;;;9.00;99.90;;;;;;5029650;28;20041;-76
2023/03/15 07:12:06;;;;;;;20.08;12.73;;;9.00;99.90;;;;;;5030435;28;19912;-76
2023/03/15 07:14:33;;;;;;;14.25;9.25;;;9.00;99.90;;;;;;5029131;28;20030;-75
2023/03/15 07:16:59;;;;;;;7.38;4.20;;;9.10;99.90;;;;;;5030109;28;20017;-76
2023/03/15 07:19:24;;;;;;;;;;;9.10;99.90;;;;;;5030606;28;20536;-76
2023/03/15 07:21:50;;;;;;;4.25;2.13;;;9.10;99.90;;;;;;5030417;28;20328;-76
2023/03/15 07:24:16;;;;;;;5.85;2.45;;;9.10;99.90;;;;;;5029034;28;20040;-72
2023/03/15 07:26:42;;;;;;;4.10;1.48;;;9.00;99.90;;;;;;5030391;28;20029;-76
2023/03/15 07:29:08;;;;;;;;;;;8.90;99.90;;;;;;5030574;28;20091;-75
2023/03/15 07:31:34;;;;;;;4.90;1.80;;;8.90;99.90;;;;;;5030388;28;19927;-76
2023/03/15 07:33:59;;;;;;;;;;;8.80;99.90;;;;;;5030757;28;20445;-76
2023/03/15 07:36:25;;;;;;;3.42;1.10;;;8.70;99.90;;;;;;5029327;28;19916;-73
2023/03/15 07:38:51;;;;;;;2.38;1.02;;;8.70;99.90;;;;;;5028582;28;20459;-75
2023/03/15 07:41:16;;;;;;;;;;;8.60;99.90;;;;;;5030348;28;20033;-75
2023/03/15 07:43:42;;;;;;;4.75;1.70;;;8.60;99.90;;;;;;5030070;28;19916;-74
2023/03/15 07:46:07;;;;;;;;;;;8.40;99.90;;;;;;5030644;28;20095;-74
2023/03/15 07:48:33;;;;;;;2.05;0.77;;;8.40;99.90;;;;;;5030094;28;19995;-76
2023/03/15 07:50:59;;;;;;;;;;;8.40;99.90;;;;;;5030410;28;20057;-74
2023/03/15 07:53:25;;;;;;;2.17;0.90;;;8.30;99.90;;;;;;5030149;28;19909;-75
2023/03/15 07:55:50;;;;;;;;;;;8.40;99.90;;;;;;5029236;28;20124;-76
2023/03/15 07:58:16;;;;;;;2.58;1.05;;;8.30;99.90;;;;;;5028699;28;19908;-74
2023/03/15 08:00:42;;;;;;;;;;;8.20;99.90;;;;;;5030105;28;20029;-73
2023/03/15 08:03:07;;;;;;;9.00;1.40;;;8.20;99.90;;;;;;5029556;28;19909;-73
2023/03/15 08:05:33;;;;;;;;;;;8.20;99.90;;;;;;5028716;28;20033;-74
2023/03/15 08:07:59;;;;;;;4.75;2.35;;;8.00;99.90;;;;;;5028030;28;19981;-75
2023/03/15 08:10:25;;;;;;;5.18;1.30;;;8.00;99.90;;;;;;5028093;28;20044;-75
2023/03/15 08:12:51;;;;;;;;;;;8.00;99.90;;;;;;5028573;28;20108;-74
2023/03/15 08:15:18;;;;;;;2.92;0.90;;;8.00;99.90;;;;;;5029186;28;20020;-74
2023/03/15 08:17:45;;;;;;;4.30;1.15;;;8.00;99.90;;;;;;5029177;28;20025;-74
2023/03/15 08:20:13;;;;;;;11.02;2.50;;;7.90;99.90;;;;;;5027913;28;20044;-74
2023/03/15 08:22:43;;;;;;;2.50;1.02;;;7.90;99.90;;;;;;5029228;28;20077;-74
2023/03/15 08:25:11;;;;;;;1.55;0.80;;;7.90;99.90;;;;;;5028999;28;20033;-74
2023/03/15 08:27:37;;;;;;;2.88;1.67;;;8.00;99.90;;;;;;5029113;28;20021;-73
2023/03/15 08:30:04;;;;;;;6.20;1.80;;;8.00;99.90;;;;;;5028969;28;20114;-74
2023/03/15 08:32:30;;;;;;;4.80;2.13;;;8.00;99.90;;;;;;5029031;28;20032;-74
2023/03/15 08:34:56;;;;;;;;;;;8.00;99.90;;;;;;5027562;28;20026;-74
2023/03/15 08:37:22;;;;;;;4.38;2.15;;;8.00;99.90;;;;;;5028755;28;19905;-75
2023/03/15 08:39:48;;;;;;;4.55;1.95;;;8.10;99.90;;;;;;5028463;28;20568;-75
2023/03/15 08:42:14;;;;;;;;;;;8.10;99.90;;;;;;5029770;28;20022;-74
2023/03/15 08:44:40;;;;;;;7.10;1.70;;;8.00;99.90;;;;;;5028987;28;20027;-74
2023/03/15 08:47:05;;;;;;;;;;;8.00;99.90;;;;;;5029210;28;20033;-74
2023/03/15 08:49:32;;;;;;;7.22;2.85;;;7.80;99.90;;;;;;5028609;28;19924;-74
2023/03/15 08:51:58;;;;;;;3.92;1.63;;;7.70;99.90;;;;;;5028093;28;20481;-74
2023/03/15 08:54:24;;;;;;;;;;;7.70;99.90;;;;;;5029084;28;20037;-74
2023/03/15 08:56:50;;;;;;;8.93;2.50;;;7.70;99.90;;;;;;5027223;28;19905;-74
2023/03/15 08:59:15;;;;;;;;;;;7.60;99.90;;;;;;5027583;28;20053;-74
2023/03/15 09:01:43;;;;;;;3.38;1.17;;;7.50;99.90;;;;;;5028666;28;19954;-73
2023/03/15 09:04:09;;;;;;;2.03;0.75;;;7.50;99.90;;;;;;5027447;28;20037;-73
2023/03/15 09:06:35;;;;;;;;;;;7.40;99.90;;;;;;5028719;28;20885;-74
2023/03/15 09:09:00;;;;;;;3.80;1.33;;;7.30;99.90;;;;;;5027950;28;19916;-74
2023/03/15 09:11:41;;;;;;;2.83;1.20;;;7.30;99.90;;;;;;5024511;28;20516;-75
2023/03/15 09:14:07;;;;;;;;;;;7.20;99.90;;;;;;5028957;28;20013;-75
2023/03/15 09:16:33;;;;;;;1.42;0.60;;;7.20;99.90;;;;;;5028456;28;20445;-74
2023/03/15 09:18:58;;;;;;;;;;;7.20;99.90;;;;;;5027190;28;20104;-74
2023/03/15 09:21:24;;;;;;;4.28;1.58;;;7.20;99.90;;;;;;5028229;28;20507;-75
2023/03/15 09:23:49;;;;;;;;;;;7.10;99.90;;;;;;5028749;28;20410;-76
2023/03/15 09:26:15;;;;;;;2.85;1.38;;;7.00;99.90;;;;;;5028275;28;20285;-74
2023/03/15 09:28:40;;;;;;;;;;;6.90;99.90;;;;;;5027083;28;20096;-74
2023/03/15 09:31:07;;;;;;;3.90;1.77;;;6.90;99.90;;;;;;5026934;28;19917;-75
2023/03/15 09:33:32;;;;;;;2.03;0.57;;;6.80;99.90;;;;;;5028219;28;20021;-75
2023/03/15 09:35:58;;;;;;;;;;;6.80;99.90;;;;;;5028646;28;20029;-75
2023/03/15 09:38:24;;;;;;;0.90;0.30;;;6.80;99.90;;;;;;5027009;28;19964;-74
2023/03/15 09:40:50;;;;;;;;;;;6.70;99.90;;;;;;5024900;28;20071;-75
2023/03/15 09:43:37;;;;;;;2.60;0.95;;;6.70;99.90;;;;;;5041942;28;19913;-75
2023/03/15 09:46:21;;;;;;;4.60;2.55;;;6.60;99.90;;;;;;5044133;28;20124;-73
2023/03/15 09:49:26;;;;;;;5.68;2.28;;;6.60;99.90;;;;;;5045498;28;20029;-73
2023/03/15 09:52:07;;;;;;;4.40;1.55;;;6.60;99.90;;;;;;5046418;28;20119;-73
2023/03/15 09:54:55;;;;;;;3.92;1.20;;;6.60;99.90;;;;;;5024815;28;20033;-73
2023/03/15 09:57:46;;;;;;;3.20;1.20;;;6.60;99.90;;;;;;5025130;28;20142;-74
2023/03/15 10:00:19;;;;;;;2.05;1.00;;;6.50;99.90;;;;;;5025083;28;20033;-75
2023/03/15 10:03:08;;;;;;;16.60;7.50;;;6.50;99.90;;;;;;5027028;28;20129;-73
2023/03/15 10:05:46;;;;;;;16.75;6.15;;;6.50;99.90;;;;;;5029384;28;20087;-72
2023/03/15 10:08:18;;;;;;;12.93;6.47;;;6.50;99.90;;;;;;5030083;28;20050;-75
2023/03/15 10:10:54;;;;;;;8.85;3.92;;;6.50;99.90;;;;;;5029675;28;20124;-75
2023/03/15 10:13:48;;;;;;;6.80;3.03;;;6.60;99.90;;;;;;5029415;28;20133;-74
2023/03/15 10:16:49;;;;;;;10.65;5.93;;;6.60;99.90;;;;;;5030693;28;20044;-75
2023/03/15 10:19:46;;;;;;;4.28;2.33;;;6.70;99.90;;;;;;5028524;28;20448;-76
2023/03/15 10:22:12;;;;;;;10.30;4.60;;;6.70;99.90;;;;;;5030364;28;20025;-75
2023/03/15 10:25:10;;;;;;;15.32;7.03;;;6.60;99.90;;;;;;5029890;28;20029;-75
2023/03/15 10:27:44;;;;;;;3.40;1.65;;;6.70;99.90;;;;;;5029488;28;20037;-73
2023/03/15 10:30:20;;;;;;;3.25;1.50;;;6.70;99.90;;;;;;5028598;28;20033;-73
2023/03/15 10:32:57;;;;;;;2.53;1.20;;;6.80;99.90;;;;;;5028579;28;20041;-74
2023/03/15 10:35:23;;;;;;;5.90;2.53;;;6.90;99.90;;;;;;5029744;28;20033;-73
2023/03/15 10:37:48;;;;;;;;;;;6.90;99.90;;;;;;5030291;28;20048;-74
2023/03/15 10:40:15;;;;;;;2.38;0.70;;;7.00;99.90;;;;;;5029381;28;19947;-73
2023/03/15 10:42:46;;;;;;;6.13;2.80;;;7.00;99.90;;;;;;5029313;28;20025;-76
2023/03/15 10:45:30;;;;;;;3.05;1.15;;;6.90;99.90;;;;;;5029612;28;20048;-74
2023/03/15 10:47:56;;;;;;;4.00;0.73;;;7.00;99.90;;;;;;5029895;28;20025;-73
2023/03/15 10:50:29;;;;;;;;;;;7.00;99.90;;;;;;5030017;28;20064;-73
2023/03/15 10:52:56;;;;;;;2.72;1.00;;;7.00;99.90;;;;;;5029100;28;19986;-72
2023/03/15 10:55:35;;;;;;;6.57;4.13;;;7.00;99.90;;;;;;5030379;28;20103;-72
2023/03/15 10:58:27;;;;;;;2.28;1.13;;;7.10;99.90;;;;;;5030720;28;20047;-72
2023/03/15 11:01:00;;;;;;;8.85;3.83;;;7.10;99.90;;;;;;5030500;28;20402;-72
2023/03/15 11:03:27;;;;;;;5.15;2.33;;;7.00;99.90;;;;;;5031728;28;20097;-73
2023/03/15 11:05:56;;;;;;;7.00;4.82;;;7.10;99.90;;;;;;5031775;28;20065;-73
2023/03/15 11:08:41;;;;;;;6.80;3.72;;;7.20;99.90;;;;;;5031582;28;20132;-73
2023/03/15 11:11:07;;;;;;;4.80;2.60;;;7.20;99.90;;;;;;5029258;28;20524;-73
2023/03/15 11:13:35;;;;;;;7.05;2.30;;;7.20;99.90;;;;;;5029036;28;20108;-74
2023/03/15 11:16:06;;;;;;;1.40;0.60;;;7.30;99.90;;;;;;5028981;28;20033;-73
2023/03/15 11:18:36;;;;;;;3.28;1.63;;;7.40;99.90;;;;;;5029443;28;20025;-73
2023/03/15 11:21:09;;;;;;;3.03;1.42;;;7.40;99.90;;;;;;5030564;28;20083;-73
2023/03/15 11:23:38;;;;;;;3.85;1.35;;;7.40;99.90;;;;;;5031045;28;20026;-74
2023/03/15 11:26:05;;;;;;;2.35;0.90;;;7.50;99.90;;;;;;5029914;28;20095;-74
2023/03/15 11:28:34;;;;;;;1.77;0.50;;;7.70;99.90;;;;;;5030259;28;20041;-74
2023/03/15 11:31:03;;;;;;;1.17;0.50;;;7.90;99.90;;;;;;5030063;28;20038;-74
2023/03/15 11:33:42;;;;;;;2.13;0.50;;;7.80;99.90;;;;;;5031704;28;20506;-73
2023/03/15 11:36:13;;;;;;;0.82;0.35;;;7.80;99.90;;;;;;5031164;28;20021;-74
2023/03/15 11:38:42;;;;;;;2.05;1.05;;;7.60;99.90;;;;;;5031140;28;20467;-75
2023/03/15 11:41:40;;;;;;;2.58;1.02;;;7.50;99.90;;;;;;5031050;28;20124;-75
2023/03/15 11:44:09;;;;;;;2.50;1.08;;;7.40;99.90;;;;;;5031055;28;20083;-74
2023/03/15 11:46:44;;;;;;;2.60;1.55;;;7.40;99.90;;;;;;5029474;28;20029;-74
2023/03/15 11:49:13;;;;;;;1.88;1.00;;;7.40;99.90;;;;;;5030718;28;20029;-72
2023/03/15 11:51:39;;;;;;;1.77;0.75;;;7.40;99.90;;;;;;5029373;28;20410;-72
2023/03/15 11:54:07;;;;;;;;;;;7.40;99.90;;;;;;5031160;28;20032;-73
2023/03/15 11:56:42;;;;;;;5.75;2.60;;;7.20;99.90;;;;;;5030798;28;19916;-74
2023/03/15 11:59:11;;;;;;;3.63;1.15;;;7.20;99.90;;;;;;5029093;28;20026;-74
2023/03/15 12:01:47;;;;;;;3.45;1.70;;;7.10;99.90;;;;;;5029213;28;20101;-73
2023/03/15 12:04:36;;;;;;;2.75;1.50;;;7.00;99.90;;;;;;5030526;28;20026;-74
2023/03/15 12:07:23;;;;;;;0.60;0.40;;;7.00;99.90;;;;;;5029074;28;20033;-74
2023/03/15 12:09:51;;;;;;;7.25;4.90;;;7.00;99.90;;;;;;5030443;28;20121;-74
2023/03/15 12:12:25;;;;;;;1.92;1.20;;;6.90;99.90;;;;;;5028941;28;20033;-74
2023/03/15 12:15:13;;;;;;;1.40;0.60;;;7.00;99.90;;;;;;5030272;28;20117;-72
2023/03/15 12:17:55;;;;;;;3.33;1.83;;;7.10;99.90;;;;;;5030233;28;20102;-72
2023/03/15 12:20:26;;;;;;;2.08;1.27;;;7.20;99.90;;;;;;5030184;28;20025;-73
2023/03/15 12:23:04;;;;;;;2.83;1.30;;;7.30;99.90;;;;;;5029058;28;20063;-72
2023/03/15 12:25:43;;;;;;;2.63;1.20;;;7.30;99.90;;;;;;5029464;28;20497;-73
2023/03/15 12:28:24;;;;;;;2.10;0.90;;;7.50;99.90;;;;;;5029012;28;20042;-73
2023/03/15 12:31:01;;;;;;;3.15;1.20;;;7.60;99.90;;;;;;5028835;28;20037;-74
2023/03/15 12:33:30;;;;;;;1.83;0.75;;;7.60;99.90;;;;;;5030164;28;20106;-74
2023/03/15 12:36:08;;;;;;;1.98;1.00;;;7.70;99.90;;;;;;5030084;28;20580;-74
2023/03/15 12:38:41;;;;;;;3.00;0.85;;;7.80;99.90;;;;;;5030046;28;20545;-72
2023/03/15 12:41:29;;;;;;;2.42;1.05;;;7.70;99.90;;;;;;5029920;28;20030;-74
2023/03/15 12:44:30;;;;;;;2.38;1.13;;;7.70;99.90;;;;;;5029627;28;20494;-74
2023/03/15 12:47:01;;;;;;;4.15;1.40;;;7.70;99.90;;;;;;5029674;28;20067;-73
2023/03/15 12:49:34;;;;;;;1.52;0.73;;;7.70;99.90;;;;;;5028861;28;20718;-74
2023/03/15 12:52:04;;;;;;;13.45;10.38;;;7.70;99.90;;;;;;5029523;28;20058;-74
2023/03/15 12:54:38;;;;;;;5.68;3.35;;;7.70;99.90;;;;;;5029630;28;20513;-74
2023/03/15 12:57:04;;;;;;;4.30;1.98;;;7.60;99.90;;;;;;5028130;28;20049;-74
2023/03/15 12:59:49;;;;;;;7.28;1.98;;;7.50;99.90;;;;;;5029502;28;20079;-74
2023/03/15 13:02:31;;;;;;;3.83;1.23;;;7.60;99.90;;;;;;5029406;28;20025;-74
2023/03/15 13:05:33;;;;;;;2.35;1.08;;;7.70;99.90;;;;;;5028022;28;20422;-73
2023/03/15 13:08:22;;;;;;;2.63;1.17;;;7.70;99.90;;;;;;5027934;28;20100;-74
2023/03/15 13:11:03;;;;;;;9.52;4.85;;;7.60;99.90;;;;;;5029392;28;20112;-73
2023/03/15 13:14:00;;;;;;;7.38;3.67;;;7.60;99.90;;;;;;5028233;28;20115;-74
2023/03/15 13:16:34;;;;;;;6.43;3.85;;;7.50;99.90;;;;;;5029943;28;20083;-73
2023/03/15 13:19:24;;;;;;;8.10;3.45;;;7.60;99.90;;;;;;5029297;28;20026;-73
2023/03/15 13:22:11;;;;;;;9.13;4.60;;;7.60;99.90;;;;;;5029272;28;20379;-73
2023/03/15 13:24:37;;;;;;;;;;;7.60;99.90;;;;;;5028630;28;20048;-72
2023/03/15 13:27:16;;;;;;;3.50;1.70;;;7.60;99.90;;;;;;5029213;28;20305;-73
2023/03/15 13:29:41;;;;;;;5.15;2.58;;;7.60;99.90;;;;;;5027896;28;20041;-74
2023/03/15 13:32:12;;;;;;;;;;;7.60;99.90;;;;;;5029586;28;20033;-74